CheckWX is a tool to help pilots better visualize weather data.  It is not intended as a substitute for an official pre-flight weather briefing.

08:27:55 UTC

KIMS METAR
Madison Municipal Airport
Madison, Indiana, USA
Current

12 mins ago

KIMS 070816Z AUTO 00000KT 10SM CLR 21/21 A3001 RMK AO1
Observed
Jul-7 @ 08:16 UTC
Visibility
10 SM
Flight Rules
VFR
Cloud Levels
  • Clear skies
Temperature
21°C / 70°F
Dewpoint
21°C / 70°F
Humidity
100%
Altimeter
30.01" Hg
Pressure
1016.22 hPa
Previous

33 mins ago

KIMS 070755Z AUTO 00000KT 10SM CLR 21/21 A3001 RMK AO1
Observed
Jul-7 @ 07:55 UTC
Visibility
10 SM
Flight Rules
VFR
Cloud Levels
  • Clear skies
Temperature
21°C / 70°F
Dewpoint
21°C / 70°F
Humidity
100%
Altimeter
30.01" Hg
Pressure
1016.22 hPa
Previous

53 mins ago

KIMS 070735Z AUTO 00000KT 10SM CLR 21/21 A3001 RMK AO1
Observed
Jul-7 @ 07:35 UTC
Visibility
10 SM
Flight Rules
VFR
Cloud Levels
  • Clear skies
Temperature
21°C / 70°F
Dewpoint
21°C / 70°F
Humidity
100%
Altimeter
30.01" Hg
Pressure
1016.22 hPa